createdAt,value
2023-01-21T00:01:41.307Z,66908.69
2023-01-21T00:04:08.383Z,66905.66
2023-01-21T00:06:37.513Z,66914.41
2023-01-21T00:09:05.779Z,66915.00
2023-01-21T00:11:35.803Z,66901.75
2023-01-21T00:14:02.940Z,66906.56
2023-01-21T00:16:36.077Z,66902.09
2023-01-21T00:19:05.735Z,66886.25
2023-01-21T00:21:49.306Z,66890.88
2023-01-21T00:24:19.082Z,66879.88
2023-01-21T00:26:46.163Z,66889.75
2023-01-21T00:29:13.256Z,66888.28
2023-01-21T00:31:43.309Z,66888.28
2023-01-21T00:34:16.902Z,66883.22
2023-01-21T00:36:45.811Z,66881.91
2023-01-21T00:39:12.866Z,66890.31
2023-01-21T00:41:40.001Z,66886.59
2023-01-21T00:44:07.180Z,66886.03
2023-01-21T00:46:37.225Z,66833.63
2023-01-21T00:49:07.188Z,66874.59
2023-01-21T00:51:37.009Z,66870.56
2023-01-21T00:54:04.150Z,66855.22
2023-01-21T00:56:41.526Z,66853.75
2023-01-21T00:59:14.377Z,66851.06
2023-01-21T01:01:47.081Z,66851.63
2023-01-21T01:04:14.533Z,66847.94
2023-01-21T01:06:51.868Z,66849.03
2023-01-21T01:09:21.288Z,66857.47
2023-01-21T01:11:50.616Z,66859.50
2023-01-21T01:14:17.952Z,66854.66
2023-01-21T01:16:45.421Z,66795.75
2023-01-21T01:19:18.871Z,66851.84
2023-01-21T01:21:46.096Z,66853.53
2023-01-21T01:24:13.207Z,66855.97
2023-01-21T01:26:48.463Z,66859.50
2023-01-21T01:29:21.092Z,66856.91
2023-01-21T01:31:48.246Z,66863.19
2023-01-21T01:34:15.358Z,66858.91
2023-01-21T01:36:45.052Z,66844.22
2023-01-21T01:39:19.089Z,66854.09
2023-01-21T01:42:01.248Z,66854.44
2023-01-21T01:45:04.600Z,66798.91
2023-01-21T01:47:37.579Z,66840.44
2023-01-21T01:50:10.082Z,66836.94
2023-01-21T01:52:42.259Z,66849.41
2023-01-21T01:55:17.773Z,66846.81
2023-01-21T01:57:59.087Z,66854.66
2023-01-21T02:00:35.879Z,66855.78
2023-01-21T02:03:46.462Z,66855.97
2023-01-21T02:06:18.312Z,66860.84
2023-01-21T02:08:51.602Z,66860.59
2023-01-21T02:11:23.226Z,66854.31
2023-01-21T02:14:02.343Z,66853.88
2023-01-21T02:17:06.026Z,66854.88
2023-01-21T02:19:57.152Z,66858.91
2023-01-21T02:22:40.728Z,66854.66
2023-01-21T02:25:47.961Z,66853.88
2023-01-21T02:28:46.347Z,66857.25
2023-01-21T02:31:47.738Z,66855.00
2023-01-21T02:34:51.771Z,66802.47
2023-01-21T02:37:48.943Z,66840.88
2023-01-21T02:40:42.383Z,66838.84
2023-01-21T02:43:50.438Z,66833.78
2023-01-21T02:46:37.706Z,66834.50
2023-01-21T02:49:11.687Z,66826.06
2023-01-21T02:51:38.823Z,66822.16
2023-01-21T02:54:40.206Z,66827.00
2023-01-21T02:57:10.662Z,66822.16
2023-01-21T02:59:39.658Z,66816.78
2023-01-21T03:02:36.782Z,66816.78
2023-01-21T03:05:37.458Z,66812.84
2023-01-21T03:08:12.731Z,66815.09
2023-01-21T03:11:04.536Z,66821.41
2023-01-21T03:13:57.445Z,66822.16
2023-01-21T03:16:49.588Z,66826.31
2023-01-21T03:19:24.237Z,66824.63
2023-01-21T03:21:53.787Z,66829.44
2023-01-21T03:24:21.109Z,66830.34
2023-01-21T03:26:52.512Z,66824.06
2023-01-21T03:29:24.023Z,66824.63
2023-01-21T03:31:56.495Z,66826.66
2023-01-21T03:34:27.726Z,66824.41
2023-01-21T03:37:53.400Z,66781.19
2023-01-21T03:40:43.065Z,66827.00
2023-01-21T03:43:10.780Z,66824.41
2023-01-21T03:45:44.642Z,66828.34
2023-01-21T03:48:31.667Z,66826.66
2023-01-21T03:51:21.980Z,66825.53
2023-01-21T03:53:59.180Z,66826.66
2023-01-21T03:56:27.578Z,66827.41
2023-01-21T03:58:54.974Z,66823.28
2023-01-21T04:01:22.584Z,66827.19
2023-01-21T04:03:49.854Z,66820.69
2023-01-21T04:06:23.168Z,66830.00
2023-01-21T04:08:50.496Z,66828.88
2023-01-21T04:11:18.029Z,66837.63
2023-01-21T04:13:45.169Z,66789.38
2023-01-21T04:16:15.026Z,66831.91
2023-01-21T04:18:45.162Z,66835.41
2023-01-21T04:21:12.422Z,66837.06
2023-01-21T04:23:39.668Z,66833.59
2023-01-21T04:26:07.698Z,66832.47
2023-01-21T04:28:34.876Z,66838.97
2023-01-21T04:31:02.014Z,66829.66
2023-01-21T04:33:30.728Z,66820.69
2023-01-21T04:35:59.638Z,66819.91
2023-01-21T04:38:27.607Z,66815.66
2023-01-21T04:40:55.306Z,66823.28
2023-01-21T04:43:22.467Z,66816.56
2023-01-21T04:45:50.228Z,66818.59
2023-01-21T04:48:17.775Z,66773.72
2023-01-21T04:50:46.703Z,66821.03
2023-01-21T04:53:17.010Z,66817.69
2023-01-21T04:55:44.103Z,66823.63
2023-01-21T04:58:11.194Z,66826.41
2023-01-21T05:00:38.372Z,66825.88
2023-01-21T05:03:05.700Z,66821.81
2023-01-21T05:05:32.878Z,66822.16
2023-01-21T05:07:59.961Z,66806.69
2023-01-21T05:10:27.175Z,66800.31
2023-01-21T05:12:54.463Z,66800.88
2023-01-21T05:15:21.914Z,66808.50
2023-01-21T05:17:49.142Z,66808.72
2023-01-21T05:20:17.076Z,66814.31
2023-01-21T05:22:50.347Z,66805.91
2023-01-21T05:25:17.431Z,66815.44
2023-01-21T05:27:44.535Z,66827.00
2023-01-21T05:30:12.109Z,66819.13
2023-01-21T05:32:42.393Z,66822.50
2023-01-21T05:35:12.144Z,66814.88
2023-01-21T05:37:39.323Z,66811.16
2023-01-21T05:40:07.124Z,66804.59
2023-01-21T05:42:37.137Z,66791.91
2023-01-21T05:45:04.757Z,66803.44
2023-01-21T05:47:31.888Z,66796.16
2023-01-21T05:49:58.976Z,66794.16
2023-01-21T05:52:26.144Z,66785.75
2023-01-21T05:55:02.157Z,66785.75
2023-01-21T05:57:30.912Z,66792.81
2023-01-21T05:59:58.691Z,66790.78
2023-01-21T06:02:28.850Z,66791.34
2023-01-21T06:04:55.945Z,66793.59
2023-01-21T06:07:23.271Z,66794.50
2023-01-21T06:09:50.571Z,66743.13
2023-01-21T06:12:17.639Z,66800.31
2023-01-21T06:14:44.750Z,66802.56
2023-01-21T06:17:11.918Z,66807.94
2023-01-21T06:19:39.081Z,66802.56
2023-01-21T06:22:06.216Z,66756.56
2023-01-21T06:24:33.272Z,66754.13
2023-01-21T06:27:00.371Z,66807.03
2023-01-21T06:29:30.216Z,66811.16
2023-01-21T06:31:57.849Z,66821.41
2023-01-21T06:34:25.535Z,66816.34
2023-01-21T06:36:55.480Z,66816.00
2023-01-21T06:39:22.651Z,66813.75
2023-01-21T06:41:49.782Z,66813.56
2023-01-21T06:44:16.847Z,66817.13
2023-01-21T06:46:52.186Z,66826.41
2023-01-21T06:49:26.677Z,66820.69
2023-01-21T06:51:53.818Z,66827.97
2023-01-21T06:54:21.071Z,66828.53
2023-01-21T06:56:53.272Z,66814.75
2023-01-21T06:59:20.755Z,66815.44
2023-01-21T07:01:47.981Z,66819.56
2023-01-21T07:04:18.052Z,66821.41
2023-01-21T07:06:45.231Z,66827.00
2023-01-21T07:09:12.646Z,66815.44
2023-01-21T07:11:40.746Z,66817.13
2023-01-21T07:14:08.181Z,66816.56
2023-01-21T07:16:38.047Z,66822.16
2023-01-21T07:19:05.212Z,66818.47
2023-01-21T07:21:32.339Z,66813.75
2023-01-21T07:24:00.581Z,66812.84
2023-01-21T07:26:28.407Z,66811.28
2023-01-21T07:28:55.467Z,66813.19
2023-01-21T07:31:22.511Z,66820.81
2023-01-21T07:33:49.747Z,66822.94
2023-01-21T07:36:16.968Z,66831.13
2023-01-21T07:38:44.165Z,66784.00
2023-01-21T07:41:11.422Z,66837.06
2023-01-21T07:43:39.543Z,66837.28
2023-01-21T07:46:06.613Z,66842.09
2023-01-21T07:48:34.834Z,66839.31
2023-01-21T07:51:02.114Z,66835.81
2023-01-21T07:53:31.980Z,66844.38
2023-01-21T07:56:04.360Z,66834.13
2023-01-21T07:58:31.412Z,66835.03
2023-01-21T08:00:59.123Z,66839.53
2023-01-21T08:03:26.326Z,66848.28
2023-01-21T08:05:53.380Z,66845.69
2023-01-21T08:08:20.483Z,66852.41
2023-01-21T08:10:54.744Z,66852.41
2023-01-21T08:13:22.664Z,66854.31
2023-01-21T08:15:54.557Z,66866.22
2023-01-21T08:18:25.127Z,66857.31
2023-01-21T08:20:56.504Z,66859.50
2023-01-21T08:23:24.328Z,66863.06
2023-01-21T08:25:51.402Z,66860.59
2023-01-21T08:28:18.473Z,66863.63
2023-01-21T08:30:45.647Z,66864.75
2023-01-21T08:33:12.824Z,66875.53
2023-01-21T08:35:42.651Z,66871.47
2023-01-21T08:38:09.905Z,66880.44
2023-01-21T08:40:39.958Z,66878.97
2023-01-21T08:43:09.141Z,66880.22
2023-01-21T08:45:36.327Z,66877.41
2023-01-21T08:48:04.219Z,66885.47
2023-01-21T08:50:31.208Z,66870.56
2023-01-21T08:52:58.353Z,66876.53
2023-01-21T08:55:26.811Z,66871.13
2023-01-21T08:57:55.920Z,66868.69
2023-01-21T09:00:23.978Z,66877.84
2023-01-21T09:02:51.814Z,66877.41
2023-01-21T09:05:20.375Z,66878.19
2023-01-21T09:07:47.561Z,66883.47
2023-01-21T09:10:37.470Z,66892.22
2023-01-21T09:13:05.756Z,66897.81
2023-01-21T09:15:40.951Z,66896.69
2023-01-21T09:18:08.374Z,66893.66
2023-01-21T09:20:35.590Z,66891.66
2023-01-21T09:23:02.926Z,66892.41
2023-01-21T09:25:30.039Z,66894.31
2023-01-21T09:28:01.550Z,66898.25
2023-01-21T09:30:28.749Z,66912.94
2023-01-21T09:32:55.857Z,66906.22
2023-01-21T09:35:22.941Z,66908.69
2023-01-21T09:37:50.056Z,66911.81
2023-01-21T09:40:17.326Z,66913.84
2023-01-21T09:42:44.487Z,66915.19
2023-01-21T09:45:14.749Z,66913.72
2023-01-21T09:47:45.382Z,66926.75
2023-01-21T09:50:21.147Z,66921.34
2023-01-21T09:52:55.350Z,66929.78
2023-01-21T09:55:35.542Z,66914.28
2023-01-21T09:58:15.216Z,66915.41
2023-01-21T10:00:52.383Z,66939.09
2023-01-21T10:03:32.484Z,66926.41
2023-01-21T10:06:09.985Z,66931.13
2023-01-21T10:08:37.234Z,66934.25
2023-01-21T10:11:22.750Z,66936.84
2023-01-21T10:14:19.920Z,66934.59
2023-01-21T10:17:24.195Z,66933.72
2023-01-21T10:19:55.222Z,66933.13
2023-01-21T10:22:46.847Z,66932.03
2023-01-21T10:25:49.014Z,66898.06
2023-01-21T10:28:30.555Z,66941.19
2023-01-21T10:31:05.961Z,66938.59
2023-01-21T10:33:36.319Z,66943.78
2023-01-21T10:36:18.474Z,66941.75
2023-01-21T10:39:23.293Z,66940.66
2023-01-21T10:42:24.588Z,66949.19
2023-01-21T10:45:16.452Z,66945.47
2023-01-21T10:48:01.945Z,66944.00
2023-01-21T10:50:57.299Z,66956.34
2023-01-21T10:53:27.302Z,66952.97
2023-01-21T10:56:40.415Z,66957.81
2023-01-21T10:59:16.245Z,66959.72
2023-01-21T11:01:47.335Z,66955.22
2023-01-21T11:04:23.305Z,66968.03
2023-01-21T11:07:11.360Z,66964.75
2023-01-21T11:09:44.705Z,66965.66
2023-01-21T11:12:24.917Z,66962.31
2023-01-21T11:15:07.635Z,66959.72
2023-01-21T11:17:39.914Z,66967.34
2023-01-21T11:20:16.707Z,66970.50
2023-01-21T11:22:48.351Z,66981.94
2023-01-21T11:25:49.052Z,66981.38
2023-01-21T11:28:27.725Z,66975.41
2023-01-21T11:31:05.864Z,66975.19
2023-01-21T11:33:39.667Z,66974.63
2023-01-21T11:36:12.391Z,66974.28
2023-01-21T11:38:43.159Z,66980.25
2023-01-21T11:41:13.365Z,66980.81
2023-01-21T11:43:46.255Z,66975.97
2023-01-21T11:46:39.628Z,66979.69
2023-01-21T11:49:08.943Z,66983.03
2023-01-21T11:51:38.652Z,66977.66
2023-01-21T11:54:20.704Z,66980.25
2023-01-21T11:56:58.352Z,66987.31
2023-01-21T11:59:35.697Z,66989.22
2023-01-21T12:02:04.667Z,66951.88
2023-01-21T12:04:35.683Z,66999.53
2023-01-21T12:07:10.912Z,67001.56
2023-01-21T12:09:44.373Z,66998.41
2023-01-21T12:12:30.050Z,67000.09
2023-01-21T12:15:13.534Z,67004.59
2023-01-21T12:17:59.251Z,67010.00
2023-01-21T12:20:53.572Z,67013.13
2023-01-21T12:23:39.423Z,66963.66
2023-01-21T12:26:36.301Z,67006.63
2023-01-21T12:29:30.397Z,67013.13
2023-01-21T12:32:19.875Z,67013.91
2023-01-21T12:35:12.530Z,67011.47
2023-01-21T12:37:58.719Z,67012.00
2023-01-21T12:40:39.801Z,67017.84
2023-01-21T12:43:22.050Z,67013.69
2023-01-21T12:45:54.619Z,67019.31
2023-01-21T12:48:28.267Z,67010.19
2023-01-21T12:51:05.362Z,67021.56
2023-01-21T12:53:52.115Z,67020.66
2023-01-21T12:56:45.618Z,67014.13
2023-01-21T12:59:31.835Z,67025.47
2023-01-21T13:02:29.787Z,67031.88
2023-01-21T13:05:49.902Z,67034.34
2023-01-21T13:19:49.428Z,67043.88
2023-01-21T13:22:47.749Z,67049.81
2023-01-21T13:25:50.401Z,67048.72
2023-01-21T13:28:25.366Z,67048.91
2023-01-21T13:30:59.501Z,67049.06
2023-01-21T13:33:58.125Z,67046.66
2023-01-21T13:36:39.618Z,67044.97
2023-01-21T13:39:49.929Z,67035.44
2023-01-21T13:42:36.579Z,67033.00
2023-01-21T13:45:35.194Z,67029.41
2023-01-21T13:48:41.282Z,67016.94
2023-01-21T13:51:09.038Z,67018.41
2023-01-21T13:53:44.422Z,67021.78
2023-01-21T13:56:30.519Z,67020.66
2023-01-21T13:59:08.661Z,67018.19
2023-01-21T14:01:47.630Z,67012.44
2023-01-21T14:04:23.261Z,67010.53
2023-01-21T14:07:17.947Z,67008.31
2023-01-21T14:09:54.239Z,67006.63
2023-01-21T14:12:49.661Z,67005.50
2023-01-21T14:15:35.777Z,67001.78
2023-01-21T14:18:33.307Z,67004.94
2023-01-21T14:21:06.685Z,67007.19
2023-01-21T14:23:46.651Z,67006.63
2023-01-21T14:26:14.293Z,67006.03
2023-01-21T14:29:01.607Z,67004.38
2023-01-21T14:32:12.852Z,67000.66
2023-01-21T14:34:50.245Z,67005.50
2023-01-21T14:37:29.918Z,67008.88
2023-01-21T14:40:11.125Z,67006.03
2023-01-21T14:42:45.072Z,67008.09
2023-01-21T14:45:15.106Z,67005.50
2023-01-21T14:47:46.603Z,67006.81
2023-01-21T14:50:47.502Z,67006.63
2023-01-21T14:53:22.399Z,67009.22
2023-01-21T14:56:32.804Z,67002.91
2023-01-21T14:59:05.846Z,67002.91
2023-01-21T15:01:42.435Z,67002.91
2023-01-21T15:04:35.407Z,66999.53
2023-01-21T15:07:10.383Z,66956.38
2023-01-21T15:09:44.311Z,66998.97
2023-01-21T15:12:27.367Z,67002.13
2023-01-21T15:15:01.862Z,66999.53
2023-01-21T15:17:59.596Z,66999.53
2023-01-21T15:20:42.389Z,67000.44
2023-01-21T15:23:31.558Z,66998.41
2023-01-21T15:26:08.472Z,67000.44
2023-01-21T15:28:44.992Z,66999.53
2023-01-21T15:31:21.707Z,67005.84
2023-01-21T15:33:54.872Z,66998.78
2023-01-21T15:36:27.322Z,66997.88
2023-01-21T15:39:01.956Z,67002.13
2023-01-21T15:42:09.619Z,67004.16
2023-01-21T15:45:27.383Z,67003.03
2023-01-21T15:48:18.269Z,67001.56
2023-01-21T15:51:19.007Z,67002.13
2023-01-21T15:53:54.048Z,67001.56
2023-01-21T15:56:51.067Z,67001.22
2023-01-21T15:59:30.704Z,67002.13
2023-01-21T16:02:22.909Z,67003.81
2023-01-21T16:04:58.604Z,67002.69
2023-01-21T16:07:43.977Z,67010.31
2023-01-21T16:10:26.356Z,67004.38
2023-01-21T16:13:16.920Z,67006.03
2023-01-21T16:16:18.375Z,67006.63
2023-01-21T16:19:04.311Z,67007.53
2023-01-21T16:21:35.619Z,67006.63
2023-01-21T16:24:08.539Z,67011.09
2023-01-21T16:26:36.570Z,67009.63
2023-01-21T16:29:13.359Z,67012.00
2023-01-21T16:31:52.339Z,67014.06
2023-01-21T16:34:41.828Z,67005.34
2023-01-21T16:37:18.093Z,67014.25
2023-01-21T16:39:46.353Z,67014.47
2023-01-21T16:42:32.169Z,67014.69
2023-01-21T16:45:00.685Z,67013.56
2023-01-21T16:47:37.396Z,67017.97
2023-01-21T16:50:05.672Z,67023.78
2023-01-21T16:52:34.456Z,67024.91
2023-01-21T16:55:02.171Z,67016.94
2023-01-21T16:57:32.011Z,67020.88
2023-01-21T17:00:02.324Z,67021.19
2023-01-21T17:02:32.597Z,67022.53
2023-01-21T17:05:06.491Z,67027.38
2023-01-21T17:07:58.640Z,67026.59
2023-01-21T17:10:53.836Z,67019.19
2023-01-21T17:13:22.386Z,67028.84
2023-01-21T17:15:58.248Z,67029.06
2023-01-21T17:18:30.432Z,67025.91
2023-01-21T17:21:28.093Z,67034.09
2023-01-21T17:24:07.885Z,67035.78
2023-01-21T17:26:40.198Z,67035.25
2023-01-21T17:29:16.371Z,67032.06
2023-01-21T17:31:45.195Z,67040.84
2023-01-21T17:34:15.991Z,67045.91
2023-01-21T17:36:45.742Z,67044.44
2023-01-21T17:39:13.594Z,67044.44
2023-01-21T17:41:46.364Z,67043.88
2023-01-21T17:44:24.174Z,67047.56
2023-01-21T17:46:54.374Z,67049.06
2023-01-21T17:49:25.366Z,67047.56
2023-01-21T17:51:55.646Z,67048.34
2023-01-21T17:54:29.857Z,67050.94
2023-01-21T17:56:59.446Z,67049.50
2023-01-21T17:59:43.253Z,67047.81
2023-01-21T18:02:14.854Z,67052.09
2023-01-21T18:04:42.941Z,67047.22
2023-01-21T18:07:26.515Z,67052.28
2023-01-21T18:10:00.127Z,67055.78
2023-01-21T18:12:27.780Z,67059.94
2023-01-21T18:14:55.387Z,67057.69
2023-01-21T18:17:25.025Z,67050.94
2023-01-21T18:19:52.434Z,67056.78
2023-01-21T18:22:31.109Z,67055.44
2023-01-21T18:25:02.872Z,67052.84
2023-01-21T18:27:31.899Z,67053.75
2023-01-21T18:29:59.631Z,67050.25
2023-01-21T18:32:27.288Z,67061.41
2023-01-21T18:35:01.007Z,67063.88
2023-01-21T18:37:30.830Z,67056.78
2023-01-21T18:39:58.292Z,67054.88
2023-01-21T18:42:27.467Z,67053.06
2023-01-21T18:44:56.273Z,67044.84
2023-01-21T18:47:23.741Z,67061.59
2023-01-21T18:49:51.348Z,67063.88
2023-01-21T18:52:21.862Z,67060.69
2023-01-21T18:54:49.356Z,67058.81
2023-01-21T18:57:20.329Z,67054.75
2023-01-21T18:59:47.684Z,67056.00
2023-01-21T19:02:21.516Z,67058.59
2023-01-21T19:04:49.710Z,67057.91
2023-01-21T19:07:20.090Z,67058.44
2023-01-21T19:09:50.016Z,67061.41
2023-01-21T19:12:21.150Z,67062.38
2023-01-21T19:14:48.984Z,67063.88
2023-01-21T19:17:20.347Z,67063.50
2023-01-21T19:19:48.498Z,67055.09
2023-01-21T19:22:16.449Z,67055.09
2023-01-21T19:24:44.435Z,67062.19
2023-01-21T19:27:27.945Z,67067.03
2023-01-21T19:29:56.497Z,67063.72
2023-01-21T19:32:23.831Z,67060.13
2023-01-21T19:34:52.430Z,67062.75
2023-01-21T19:37:23.306Z,67068.34
2023-01-21T19:39:51.393Z,67066.66
2023-01-21T19:42:19.205Z,67066.31
2023-01-21T19:44:46.852Z,67064.63
2023-01-21T19:47:24.179Z,67065.19
2023-01-21T19:49:51.735Z,67067.44
2023-01-21T19:52:19.179Z,67063.50
2023-01-21T19:54:46.594Z,67066.09
2023-01-21T19:57:17.917Z,67063.09
2023-01-21T19:59:52.348Z,67064.41
2023-01-21T20:02:20.166Z,67064.06
2023-01-21T20:04:47.819Z,67065.56
2023-01-21T20:07:16.336Z,67057.69
2023-01-21T20:09:43.716Z,67060.91
2023-01-21T20:12:13.205Z,67073.97
2023-01-21T20:14:40.619Z,67064.06
2023-01-21T20:17:13.403Z,67066.66
2023-01-21T20:19:41.061Z,67064.06
2023-01-21T20:22:14.489Z,67064.97
2023-01-21T20:24:44.312Z,67074.53
2023-01-21T20:27:14.390Z,67069.81
2023-01-21T20:29:49.423Z,67059.78
2023-01-21T20:32:23.300Z,67066.88
2023-01-21T20:34:50.538Z,67058.69
2023-01-21T20:37:18.041Z,67062.97
2023-01-21T20:39:45.261Z,67069.47
2023-01-21T20:42:12.785Z,67070.03
2023-01-21T20:44:40.108Z,67059.59
2023-01-21T20:47:10.480Z,67067.09
2023-01-21T20:49:38.019Z,67060.38
2023-01-21T20:52:05.396Z,67073.41
2023-01-21T20:54:32.691Z,67071.72
2023-01-21T20:57:00.022Z,67069.47
2023-01-21T20:59:27.670Z,67068.56
2023-01-21T21:01:56.102Z,67064.84
2023-01-21T21:04:25.345Z,67062.38
2023-01-21T21:06:52.998Z,67064.41
2023-01-21T21:09:22.158Z,67061.28
2023-01-21T21:11:50.033Z,67062.97
2023-01-21T21:14:18.229Z,67068.34
2023-01-21T21:16:45.559Z,67062.38
2023-01-21T21:19:13.355Z,67065.88
2023-01-21T21:21:40.751Z,67064.06
2023-01-21T21:24:08.349Z,67063.88
2023-01-21T21:26:37.520Z,67061.06
2023-01-21T21:29:05.044Z,67070.41
2023-01-21T21:31:34.010Z,67063.28
2023-01-21T21:34:02.678Z,67063.66
2023-01-21T21:36:30.262Z,67067.78
2023-01-21T21:38:57.824Z,67062.97
2023-01-21T21:41:44.922Z,67071.16
2023-01-21T21:44:15.329Z,67070.81
2023-01-21T21:47:01.217Z,67062.97
2023-01-21T21:49:29.624Z,67068.34
2023-01-21T21:52:00.485Z,67073.75
2023-01-21T21:54:27.990Z,67063.09
2023-01-21T21:56:55.544Z,67065.56
2023-01-21T21:59:23.003Z,67068.78
2023-01-21T22:01:50.334Z,67073.06
2023-01-21T22:04:17.818Z,67072.63
2023-01-21T22:06:45.931Z,67066.88
2023-01-21T22:09:13.563Z,67066.09
2023-01-21T22:11:41.026Z,67066.31
2023-01-21T22:14:08.639Z,67065.56
2023-01-21T22:16:36.536Z,67061.28
2023-01-21T22:19:04.758Z,67072.84
2023-01-21T22:21:34.297Z,67064.63
2023-01-21T22:24:03.322Z,67071.72
2023-01-21T22:26:30.908Z,67069.69
2023-01-21T22:28:58.306Z,67072.28
2023-01-21T22:31:28.539Z,67072.28
2023-01-21T22:33:57.398Z,67067.22
2023-01-21T22:36:26.827Z,67065.75
2023-01-21T22:38:54.742Z,67069.47
2023-01-21T22:41:23.047Z,67061.06
2023-01-21T22:43:51.145Z,67053.41
2023-01-21T22:46:24.229Z,67061.06
2023-01-21T22:48:55.050Z,67067.03
2023-01-21T22:51:23.380Z,67065.56
2023-01-21T22:53:52.686Z,67064.06
2023-01-21T22:56:31.518Z,67067.78
2023-01-21T22:59:03.233Z,67056.78
2023-01-21T23:01:31.720Z,67053.41
2023-01-21T23:03:59.933Z,67053.06
2023-01-21T23:06:27.886Z,67064.19
2023-01-21T23:08:55.810Z,67066.09
2023-01-21T23:11:23.075Z,67060.69
2023-01-21T23:13:52.883Z,67068.91
2023-01-21T23:16:21.227Z,67060.28
2023-01-21T23:18:49.124Z,67060.13
2023-01-21T23:21:18.238Z,67053.41
2023-01-21T23:23:45.655Z,67064.06
2023-01-21T23:26:13.957Z,67062.97
2023-01-21T23:28:41.520Z,67067.44
2023-01-21T23:31:16.461Z,67065.75
2023-01-21T23:33:44.933Z,67062.38
2023-01-21T23:36:15.889Z,67063.66
2023-01-21T23:38:44.047Z,67055.66
2023-01-21T23:41:14.265Z,67059.38
2023-01-21T23:43:41.954Z,67057.69
2023-01-21T23:46:16.438Z,67057.69
2023-01-21T23:48:44.074Z,67068.16
2023-01-21T23:51:13.857Z,67062.97
2023-01-21T23:53:41.334Z,67060.28
2023-01-21T23:56:13.251Z,67058.44
2023-01-21T23:58:41.161Z,67059.94
